createdAt,value
2023-04-09T00:01:35.002Z,992.2
2023-04-09T00:03:36.946Z,992.2
2023-04-09T00:07:40.153Z,992.2
2023-04-09T00:11:42.899Z,992.1
2023-04-09T00:13:44.643Z,992.1
2023-04-09T00:17:47.931Z,992.1
2023-04-09T00:19:49.082Z,992.2
2023-04-09T00:23:52.616Z,992.1
2023-04-09T00:27:56.130Z,992.1
2023-04-09T00:29:57.547Z,992.1
2023-04-09T00:34:00.929Z,992.1
2023-04-09T00:38:03.837Z,992.2
2023-04-09T00:40:05.391Z,992
2023-04-09T00:44:08.092Z,992
2023-04-09T00:46:09.335Z,992
2023-04-09T00:48:10.930Z,992
2023-04-09T00:50:12.854Z,992
2023-04-09T00:54:16.108Z,992.1
2023-04-09T00:56:17.420Z,992.1
2023-04-09T01:00:20.364Z,992
2023-04-09T01:02:21.662Z,992
2023-04-09T01:06:24.295Z,992
2023-04-09T01:10:27.075Z,991.9
2023-04-09T01:12:28.192Z,992.1
2023-04-09T01:16:31.646Z,992
2023-04-09T01:20:34.584Z,992.1
2023-04-09T01:22:35.885Z,992.1
2023-04-09T01:26:38.681Z,992
2023-04-09T01:28:39.898Z,992
2023-04-09T01:32:43.301Z,992
2023-04-09T01:36:46.357Z,991.9
2023-04-09T01:38:47.817Z,991.9
2023-04-09T01:42:50.778Z,992
2023-04-09T01:44:52.253Z,992
2023-04-09T01:48:54.606Z,992
2023-04-09T01:52:56.980Z,992
2023-04-09T01:54:58.227Z,992
2023-04-09T01:59:00.724Z,992
2023-04-09T02:01:02.627Z,992
2023-04-09T02:05:06.160Z,992
2023-04-09T02:09:08.554Z,992
2023-04-09T02:11:10.518Z,992
2023-04-09T02:15:13.743Z,992.1
2023-04-09T02:19:16.065Z,992
2023-04-09T02:21:17.897Z,992
2023-04-09T02:25:20.701Z,991.9
2023-04-09T02:27:22.110Z,991.9
2023-04-09T02:31:25.194Z,992
2023-04-09T02:35:28.432Z,992
2023-04-09T02:37:30.180Z,991.9
2023-04-09T02:41:33.127Z,991.9
2023-04-09T02:43:34.254Z,991.9
2023-04-09T02:47:37.485Z,992
2023-04-09T02:51:39.789Z,992
2023-04-09T02:53:41.757Z,992
2023-04-09T02:57:44.767Z,991.9
2023-04-09T03:01:47.789Z,992
2023-04-09T03:03:49.157Z,991.9
2023-04-09T03:07:52.063Z,992
2023-04-09T03:09:53.936Z,991.8
2023-04-09T03:13:56.513Z,991.9
2023-04-09T03:18:00.098Z,991.9
2023-04-09T03:20:01.508Z,991.9
2023-04-09T03:24:05.125Z,991.9
2023-04-09T03:26:06.767Z,991.9
2023-04-09T03:30:09.524Z,991.7
2023-04-09T03:34:11.654Z,991.9
2023-04-09T03:36:13.498Z,991.9
2023-04-09T03:40:16.035Z,991.8
2023-04-09T03:44:19.340Z,991.8
2023-04-09T03:46:30.898Z,991.8
2023-04-09T03:50:23.354Z,991.7
2023-04-09T03:52:25.100Z,991.8
2023-04-09T03:54:26.441Z,991.8
2023-04-09T03:56:27.977Z,991.8
2023-04-09T04:00:30.942Z,991.9
2023-04-09T04:02:32.878Z,991.8
2023-04-09T04:06:35.805Z,991.8
2023-04-09T04:08:37.479Z,991.9
2023-04-09T04:12:40.203Z,991.8
2023-04-09T04:16:42.930Z,991.8
2023-04-09T04:18:44.250Z,992
2023-04-09T04:22:46.508Z,991.9
2023-04-09T04:28:51.021Z,992
2023-04-09T04:32:53.362Z,991.8
2023-04-09T04:34:54.891Z,991.9
2023-04-09T04:38:57.340Z,992
2023-04-09T04:42:59.707Z,992
2023-04-09T04:45:01.157Z,992
2023-04-09T04:49:04.355Z,992.1
2023-04-09T04:51:06.245Z,992.1
2023-04-09T04:55:08.807Z,992.1
2023-04-09T04:59:12.541Z,992.1
2023-04-09T05:01:14.506Z,992.1
2023-04-09T05:05:17.557Z,992.1
2023-04-09T05:07:19.051Z,992
2023-04-09T05:11:21.842Z,992.1
2023-04-09T05:15:24.662Z,992
2023-04-09T05:17:25.765Z,992.1
2023-04-09T05:21:28.733Z,992.1
2023-04-09T05:25:31.493Z,992.1
2023-04-09T05:27:32.556Z,992.1
2023-04-09T05:31:34.987Z,992.1
2023-04-09T05:33:36.761Z,992.1
2023-04-09T05:37:39.769Z,992
2023-04-09T05:41:41.735Z,992.2
2023-04-09T05:43:42.741Z,992.1
2023-04-09T05:47:45.546Z,992.1
2023-04-09T05:49:47.123Z,992.1
2023-04-09T05:53:50.478Z,992.2
2023-04-09T05:57:53.051Z,992.2
2023-04-09T05:59:54.651Z,992.1
2023-04-09T06:03:58.556Z,992.1
2023-04-09T06:07:59.888Z,992.2
2023-04-09T06:10:01.397Z,992.2
2023-04-09T06:14:03.552Z,992.1
2023-04-09T06:16:05.142Z,992.1
2023-04-09T06:18:06.730Z,992.2
2023-04-09T06:20:07.718Z,992.2
2023-04-09T06:24:10.782Z,992.1
2023-04-09T06:26:56.002Z,992.2
2023-04-09T06:30:58.960Z,992.3
2023-04-09T06:35:02.206Z,992.3
2023-04-09T06:37:03.705Z,992.3
2023-04-09T06:41:15.628Z,992.2
2023-04-09T06:43:07.873Z,992.4
2023-04-09T06:47:11.187Z,992.4
2023-04-09T06:51:13.801Z,992.4
2023-04-09T06:53:14.760Z,992.4
2023-04-09T06:57:18.050Z,992.3
2023-04-09T07:01:20.446Z,992.3
2023-04-09T07:03:22.323Z,992.3
2023-04-09T07:07:35.054Z,992.4
2023-04-09T07:09:26.746Z,992.3
2023-04-09T07:17:32.807Z,992.3
2023-04-09T07:19:34.225Z,992.4
2023-04-09T07:23:36.395Z,992.5
2023-04-09T07:25:37.881Z,992.5
2023-04-09T07:29:40.036Z,992.4
2023-04-09T07:33:42.799Z,992.4
2023-04-09T07:35:44.345Z,992.5
2023-04-09T07:39:47.578Z,992.5
2023-04-09T07:43:50.877Z,992.6
2023-04-09T07:45:52.111Z,992.6
2023-04-09T07:49:54.289Z,992.6
2023-04-09T07:51:56.074Z,992.6
2023-04-09T07:55:59.241Z,992.5
2023-04-09T08:00:01.998Z,992.5
2023-04-09T08:02:03.137Z,992.5
2023-04-09T08:04:04.095Z,992.6
2023-04-09T08:08:07.103Z,992.6
2023-04-09T08:12:09.908Z,992.4
2023-04-09T08:16:11.886Z,992.5
2023-04-09T08:18:14.519Z,992.5
2023-04-09T08:22:17.663Z,992.6
2023-04-09T08:26:19.605Z,992.5
2023-04-09T08:28:21.073Z,992.5
2023-04-09T08:32:23.235Z,992.5
2023-04-09T08:34:24.771Z,992.6
2023-04-09T08:36:26.086Z,992.5
2023-04-09T08:38:27.400Z,992.6
2023-04-09T08:42:29.946Z,992.7
2023-04-09T08:44:30.928Z,992.5
2023-04-09T08:46:32.079Z,992.6
2023-04-09T08:48:33.550Z,992.6
2023-04-09T08:50:34.307Z,992.7
2023-04-09T08:54:37.066Z,992.5
2023-04-09T08:58:40.225Z,992.6
2023-04-09T09:00:41.828Z,992.7
2023-04-09T09:04:44.288Z,992.6
2023-04-09T09:06:45.179Z,992.7
2023-04-09T09:10:47.912Z,992.7
2023-04-09T09:14:50.623Z,992.7
2023-04-09T09:16:52.262Z,992.7
2023-04-09T09:20:55.309Z,992.6
2023-04-09T09:24:57.514Z,992.6
2023-04-09T09:26:58.846Z,992.6
2023-04-09T09:31:01.701Z,992.5
2023-04-09T09:33:03.152Z,992.5
2023-04-09T09:37:06.806Z,992.6
2023-04-09T09:41:08.070Z,992.6
2023-04-09T09:43:09.198Z,992.6
2023-04-09T09:47:11.481Z,992.7
2023-04-09T09:49:12.720Z,992.6
2023-04-09T09:53:15.609Z,992.5
2023-04-09T09:57:18.719Z,992.5
2023-04-09T09:59:19.714Z,992.4
2023-04-09T10:03:21.940Z,992.5
2023-04-09T10:07:24.880Z,992.5
2023-04-09T10:09:26.165Z,992.6
2023-04-09T10:13:29.215Z,992.4
2023-04-09T10:15:30.645Z,992.5
2023-04-09T10:19:32.892Z,992.5
2023-04-09T10:23:35.144Z,992.4
2023-04-09T10:25:36.215Z,992.5
2023-04-09T10:29:38.836Z,992.5
2023-04-09T10:31:39.895Z,992.5
2023-04-09T10:35:42.609Z,992.5
2023-04-09T10:37:43.502Z,992.5
2023-04-09T10:39:44.601Z,992.5
2023-04-09T10:41:45.870Z,992.5
2023-04-09T10:45:48.811Z,992.5
2023-04-09T10:47:50.243Z,992.4
2023-04-09T10:51:52.953Z,992.3
2023-04-09T10:55:55.454Z,992.2
2023-04-09T10:57:56.581Z,992.1
2023-04-09T11:01:59.665Z,992.2
2023-04-09T11:06:02.232Z,992.3
2023-04-09T11:08:03.961Z,992.2
2023-04-09T11:12:06.611Z,992.1
2023-04-09T11:14:08.154Z,992.2
2023-04-09T11:18:10.501Z,992.1
2023-04-09T11:22:13.140Z,992
2023-04-09T11:24:14.480Z,992
2023-04-09T11:28:17.117Z,992
2023-04-09T11:30:19.239Z,992
2023-04-09T11:34:22.911Z,992
2023-04-09T11:38:26.359Z,992
2023-04-09T11:40:27.792Z,992.1
2023-04-09T11:44:29.929Z,992.1
2023-04-09T11:48:32.192Z,992
2023-04-09T11:50:33.179Z,992.1
2023-04-09T11:54:36.998Z,992
2023-04-09T11:56:38.823Z,992.1
2023-04-09T12:00:41.198Z,992
2023-04-09T12:04:43.283Z,992.1
2023-04-09T12:06:44.451Z,992
2023-04-09T12:10:47.244Z,992
2023-04-09T12:12:48.917Z,992
2023-04-09T12:16:51.075Z,992.1
2023-04-09T12:20:53.554Z,992
2023-04-09T12:22:55.122Z,992
2023-04-09T12:26:57.560Z,992.2
2023-04-09T12:31:01.028Z,992.1
2023-04-09T12:33:02.073Z,992.1
2023-04-09T12:37:04.928Z,992.1
2023-04-09T12:39:06.079Z,992
2023-04-09T12:41:07.429Z,992.1
2023-04-09T12:43:08.815Z,992.1
2023-04-09T12:47:11.936Z,992
2023-04-09T12:49:12.853Z,992
2023-04-09T12:51:14.648Z,992.1
2023-04-09T12:53:16.411Z,992
2023-04-09T12:55:17.952Z,992
2023-04-09T12:59:20.020Z,992
2023-04-09T13:03:22.845Z,991.9
2023-04-09T13:05:23.659Z,991.9
2023-04-09T13:09:26.276Z,991.8
2023-04-09T13:14:13.102Z,991.9
2023-04-09T13:16:14.283Z,991.9
2023-04-09T13:20:17.222Z,991.7
2023-04-09T13:24:19.257Z,991.8
2023-04-09T13:26:20.800Z,991.7
2023-04-09T13:30:23.711Z,991.6
2023-04-09T13:32:24.654Z,991.6
2023-04-09T13:36:28.051Z,991.6
2023-04-09T13:40:30.422Z,991.6
2023-04-09T13:42:32.113Z,991.6
2023-04-09T13:46:34.640Z,991.7
2023-04-09T13:48:35.958Z,991.5
2023-04-09T13:52:38.994Z,991.5
2023-04-09T13:56:42.440Z,991.4
2023-04-09T13:58:44.087Z,991.4
2023-04-09T14:02:46.787Z,991.5
2023-04-09T14:06:49.722Z,991.5
2023-04-09T14:08:51.271Z,991.4
2023-04-09T14:12:54.115Z,991.4
2023-04-09T14:14:55.137Z,991.5
2023-04-09T14:18:57.882Z,991.5
2023-04-09T14:23:00.109Z,991.5
2023-04-09T14:25:01.591Z,991.5
2023-04-09T14:29:04.092Z,991.5
2023-04-09T14:31:05.699Z,991.5
2023-04-09T14:35:07.691Z,991.5
2023-04-09T14:39:11.070Z,991.5
2023-04-09T14:41:12.207Z,991.4
2023-04-09T14:45:14.798Z,991.4
2023-04-09T14:49:17.258Z,991.4
2023-04-09T14:51:18.653Z,991.3
2023-04-09T14:55:21.036Z,991.3
2023-04-09T14:57:22.484Z,991.2
2023-04-09T14:59:24.245Z,991.3
2023-04-09T15:01:25.350Z,991.1
2023-04-09T15:05:27.865Z,991.2
2023-04-09T15:07:29.555Z,991.2
2023-04-09T15:09:30.697Z,991.2
2023-04-09T15:11:31.655Z,991.2
2023-04-09T15:13:33.196Z,991.2
2023-04-09T15:17:36.550Z,991.2
2023-04-09T15:19:37.861Z,991.1
2023-04-09T15:21:38.676Z,991.1
2023-04-09T15:23:39.867Z,991.1
2023-04-09T15:27:41.667Z,991
2023-04-09T15:29:43.385Z,991
2023-04-09T15:33:46.029Z,991
2023-04-09T15:37:49.113Z,991
2023-04-09T15:39:50.548Z,991
2023-04-09T15:43:52.888Z,990.9
2023-04-09T15:47:55.907Z,991.1
2023-04-09T15:49:57.164Z,991
2023-04-09T15:53:59.951Z,990.9
2023-04-09T15:56:00.808Z,991
2023-04-09T16:00:03.124Z,991
2023-04-09T16:04:05.750Z,991
2023-04-09T16:06:06.867Z,991
2023-04-09T16:10:09.177Z,991
2023-04-09T16:12:10.198Z,991
2023-04-09T16:16:21.848Z,990.9
2023-04-09T16:20:15.589Z,991
2023-04-09T16:22:16.827Z,991.1
2023-04-09T16:26:20.012Z,991.1
2023-04-09T16:30:22.490Z,991
2023-04-09T16:32:24.458Z,991.1
2023-04-09T16:36:28.375Z,991
2023-04-09T16:38:29.939Z,991.1
2023-04-09T16:42:32.304Z,991.1
2023-04-09T16:44:34.112Z,991.1
2023-04-09T16:48:37.751Z,991.1
2023-04-09T16:52:40.909Z,991
2023-04-09T16:54:42.955Z,991
2023-04-09T16:58:46.353Z,991
2023-04-09T17:02:48.454Z,991
2023-04-09T17:04:49.938Z,991
2023-04-09T17:08:52.620Z,991.1
2023-04-09T17:10:54.203Z,991
2023-04-09T17:14:56.803Z,991
2023-04-09T17:18:59.368Z,991.1
2023-04-09T17:21:00.629Z,991.1
2023-04-09T17:25:02.998Z,991.1
2023-04-09T17:27:04.654Z,991.1
2023-04-09T17:31:07.128Z,991.2
2023-04-09T17:35:10.176Z,991.2
2023-04-09T17:37:11.348Z,991.2
2023-04-09T17:41:14.366Z,991.2
2023-04-09T17:45:17.771Z,991.3
2023-04-09T17:47:19.270Z,991.2
2023-04-09T17:51:21.619Z,991.2
2023-04-09T17:53:23.511Z,991.3
2023-04-09T17:57:26.340Z,991.3
2023-04-09T18:01:28.966Z,991.3
2023-04-09T18:03:30.660Z,991.3
2023-04-09T18:07:32.939Z,991.4
2023-04-09T18:09:33.993Z,991.4
2023-04-09T18:13:37.166Z,991.4
2023-04-09T18:17:40.389Z,991.4
2023-04-09T18:19:41.381Z,991.5
2023-04-09T18:23:44.262Z,991.4
2023-04-09T18:27:48.009Z,991.5
2023-04-09T18:29:49.618Z,991.4
2023-04-09T18:33:52.754Z,991.5
2023-04-09T18:35:54.666Z,991.4
2023-04-09T18:37:56.015Z,991.4
2023-04-09T18:39:57.090Z,991.4
2023-04-09T18:43:59.930Z,991.5
2023-04-09T18:46:01.580Z,991.6
2023-04-09T18:48:02.529Z,991.6
2023-04-09T18:50:03.534Z,991.6
2023-04-09T18:52:04.714Z,991.7
2023-04-09T18:56:06.797Z,991.7
2023-04-09T18:58:08.217Z,991.7
2023-04-09T19:00:09.359Z,991.7
2023-04-09T19:02:11.208Z,991.7
2023-04-09T19:06:14.108Z,991.8
2023-04-09T19:08:15.968Z,991.7
2023-04-09T19:12:18.857Z,991.8
2023-04-09T19:16:22.078Z,991.9
2023-04-09T19:18:23.410Z,991.8
2023-04-09T19:22:26.221Z,991.9
2023-04-09T19:26:28.926Z,992
2023-04-09T19:28:30.632Z,992
2023-04-09T19:32:32.783Z,992
2023-04-09T19:34:34.728Z,992
2023-04-09T19:38:37.447Z,992
2023-04-09T19:42:40.304Z,991.9
2023-04-09T19:44:41.305Z,992
2023-04-09T19:48:44.496Z,991.9
2023-04-09T19:50:45.951Z,992
2023-04-09T19:54:49.568Z,992.1
2023-04-09T19:59:36.914Z,992.2
2023-04-09T20:03:40.275Z,992.1
2023-04-09T20:05:41.703Z,992.1
2023-04-09T20:09:44.132Z,992.2
2023-04-09T20:11:45.153Z,992.1
2023-04-09T20:15:47.760Z,992.1
2023-04-09T20:19:50.762Z,992
2023-04-09T20:21:52.535Z,992.1
2023-04-09T20:25:54.958Z,992.1
2023-04-09T20:27:55.990Z,992
2023-04-09T20:31:58.308Z,992.1
2023-04-09T20:36:00.704Z,992
2023-04-09T20:38:02.077Z,992
2023-04-09T20:42:05.214Z,992
2023-04-09T20:44:06.345Z,992
2023-04-09T20:48:09.996Z,991.9
2023-04-09T20:52:13.316Z,991.9
2023-04-09T20:54:14.824Z,992
2023-04-09T20:58:17.030Z,992
2023-04-09T21:02:20.441Z,992.1
2023-04-09T21:04:21.721Z,992.1
2023-04-09T21:08:23.690Z,992.1
2023-04-09T21:10:25.318Z,992.1
2023-04-09T21:14:28.642Z,992.2
2023-04-09T21:18:31.466Z,992.1
2023-04-09T21:20:33.305Z,992.1
2023-04-09T21:24:36.250Z,992.2
2023-04-09T21:26:49.814Z,992.1
2023-04-09T21:30:40.465Z,992.1
2023-04-09T21:34:43.433Z,992.1
2023-04-09T21:36:45.554Z,992.2
2023-04-09T21:40:47.775Z,992.1
2023-04-09T21:44:50.886Z,992.1
2023-04-09T21:46:52.033Z,992.1
2023-04-09T21:50:55.297Z,992.1
2023-04-09T21:52:56.572Z,992.1
2023-04-09T21:56:59.470Z,992.1
2023-04-09T22:01:02.278Z,992.1
2023-04-09T22:03:04.290Z,992
2023-04-09T22:07:08.060Z,992.1
2023-04-09T22:09:09.893Z,992
2023-04-09T22:13:12.940Z,992
2023-04-09T22:17:15.418Z,992
2023-04-09T22:19:17.372Z,992
2023-04-09T22:23:20.790Z,992
2023-04-09T22:27:23.918Z,992
2023-04-09T22:29:25.313Z,992
2023-04-09T22:33:28.056Z,992
2023-04-09T22:35:29.362Z,991.9
2023-04-09T22:39:31.969Z,991.9
2023-04-09T22:43:35.597Z,991.9
2023-04-09T22:45:36.710Z,991.9
2023-04-09T22:49:39.155Z,992
2023-04-09T22:51:41.595Z,992.1
2023-04-09T22:55:43.673Z,992
2023-04-09T22:59:46.865Z,991.9
2023-04-09T23:01:48.494Z,992
2023-04-09T23:05:51.055Z,991.9
2023-04-09T23:09:53.607Z,992
2023-04-09T23:11:55.461Z,992
2023-04-09T23:15:58.411Z,992
2023-04-09T23:17:59.634Z,992.1
2023-04-09T23:20:00.888Z,992
2023-04-09T23:22:02.359Z,992.1
2023-04-09T23:26:06.110Z,992.1
2023-04-09T23:28:07.414Z,992.1
2023-04-09T23:32:10.544Z,992
2023-04-09T23:34:12.211Z,992
2023-04-09T23:38:15.595Z,992.1
2023-04-09T23:42:18.722Z,992
2023-04-09T23:44:20.209Z,992
2023-04-09T23:48:22.940Z,992
2023-04-09T23:54:27.332Z,991.9
2023-04-09T23:58:30.510Z,991.9
